sensor_id;sensor_type;location;lat;lon;timestamp;P1;durP1;ratioP1;P2;durP2;ratioP2
69358;SDS011;56520;49.066;8.660;2024-03-22T00:01:52;7.05;;;2.70;;
69358;SDS011;56520;49.066;8.660;2024-03-22T00:04:18;6.00;;;2.17;;
69358;SDS011;56520;49.066;8.660;2024-03-22T00:06:44;5.03;;;2.05;;
69358;SDS011;56520;49.066;8.660;2024-03-22T00:09:10;5.22;;;1.90;;
69358;SDS011;56520;49.066;8.660;2024-03-22T00:11:36;5.13;;;1.73;;
69358;SDS011;56520;49.066;8.660;2024-03-22T00:14:02;6.38;;;2.38;;
69358;SDS011;56520;49.066;8.660;2024-03-22T00:16:28;4.22;;;1.90;;
69358;SDS011;56520;49.066;8.660;2024-03-22T00:18:53;5.88;;;1.95;;
69358;SDS011;56520;49.066;8.660;2024-03-22T00:21:19;6.30;;;1.95;;
69358;SDS011;56520;49.066;8.660;2024-03-22T00:23:45;4.82;;;1.90;;
69358;SDS011;56520;49.066;8.660;2024-03-22T00:26:10;7.47;;;2.10;;
69358;SDS011;56520;49.066;8.660;2024-03-22T00:28:36;7.93;;;2.38;;
69358;SDS011;56520;49.066;8.660;2024-03-22T00:31:01;6.13;;;2.30;;
69358;SDS011;56520;49.066;8.660;2024-03-22T00:33:27;4.97;;;1.80;;
69358;SDS011;56520;49.066;8.660;2024-03-22T00:35:52;6.53;;;1.98;;
69358;SDS011;56520;49.066;8.660;2024-03-22T00:38:18;5.75;;;2.03;;
69358;SDS011;56520;49.066;8.660;2024-03-22T00:40:43;8.10;;;2.33;;
69358;SDS011;56520;49.066;8.660;2024-03-22T00:43:09;6.70;;;2.42;;
69358;SDS011;56520;49.066;8.660;2024-03-22T00:45:34;6.80;;;2.13;;
69358;SDS011;56520;49.066;8.660;2024-03-22T00:47:59;5.97;;;1.92;;
69358;SDS011;56520;49.066;8.660;2024-03-22T00:50:25;5.07;;;1.77;;
69358;SDS011;56520;49.066;8.660;2024-03-22T00:52:51;4.55;;;1.70;;
69358;SDS011;56520;49.066;8.660;2024-03-22T00:55:21;5.53;;;2.00;;
69358;SDS011;56520;49.066;8.660;2024-03-22T00:57:46;5.53;;;1.83;;
69358;SDS011;56520;49.066;8.660;2024-03-22T01:00:12;4.80;;;1.60;;
69358;SDS011;56520;49.066;8.660;2024-03-22T01:02:38;4.93;;;1.95;;
69358;SDS011;56520;49.066;8.660;2024-03-22T01:05:04;6.63;;;2.40;;
69358;SDS011;56520;49.066;8.660;2024-03-22T01:07:29;5.38;;;1.80;;
69358;SDS011;56520;49.066;8.660;2024-03-22T01:09:54;4.70;;;1.63;;
69358;SDS011;56520;49.066;8.660;2024-03-22T01:12:20;3.13;;;1.17;;
69358;SDS011;56520;49.066;8.660;2024-03-22T01:14:45;4.72;;;1.52;;
69358;SDS011;56520;49.066;8.660;2024-03-22T01:17:11;4.45;;;1.50;;
69358;SDS011;56520;49.066;8.660;2024-03-22T01:19:36;5.70;;;1.65;;
69358;SDS011;56520;49.066;8.660;2024-03-22T01:22:01;4.43;;;1.80;;
69358;SDS011;56520;49.066;8.660;2024-03-22T01:24:27;5.55;;;2.20;;
69358;SDS011;56520;49.066;8.660;2024-03-22T01:26:53;7.80;;;2.17;;
69358;SDS011;56520;49.066;8.660;2024-03-22T01:29:18;4.97;;;1.63;;
69358;SDS011;56520;49.066;8.660;2024-03-22T01:31:44;4.25;;;1.38;;
69358;SDS011;56520;49.066;8.660;2024-03-22T01:34:09;4.00;;;1.55;;
69358;SDS011;56520;49.066;8.660;2024-03-22T01:36:35;5.65;;;1.70;;
69358;SDS011;56520;49.066;8.660;2024-03-22T01:39:00;4.53;;;1.42;;
69358;SDS011;56520;49.066;8.660;2024-03-22T01:41:25;4.50;;;1.50;;
69358;SDS011;56520;49.066;8.660;2024-03-22T01:43:51;7.47;;;1.98;;
69358;SDS011;56520;49.066;8.660;2024-03-22T01:46:17;6.70;;;1.85;;
69358;SDS011;56520;49.066;8.660;2024-03-22T01:48:43;4.30;;;1.42;;
69358;SDS011;56520;49.066;8.660;2024-03-22T01:51:08;3.95;;;1.58;;
69358;SDS011;56520;49.066;8.660;2024-03-22T01:53:35;4.47;;;1.70;;
69358;SDS011;56520;49.066;8.660;2024-03-22T01:56:02;4.35;;;1.55;;
69358;SDS011;56520;49.066;8.660;2024-03-22T01:58:27;5.15;;;1.80;;
69358;SDS011;56520;49.066;8.660;2024-03-22T02:00:53;4.25;;;1.60;;
69358;SDS011;56520;49.066;8.660;2024-03-22T02:03:19;5.47;;;2.03;;
69358;SDS011;56520;49.066;8.660;2024-03-22T02:05:44;5.18;;;1.92;;
69358;SDS011;56520;49.066;8.660;2024-03-22T02:08:10;6.55;;;2.53;;
69358;SDS011;56520;49.066;8.660;2024-03-22T02:10:36;4.65;;;1.92;;
69358;SDS011;56520;49.066;8.660;2024-03-22T02:13:01;5.88;;;2.53;;
69358;SDS011;56520;49.066;8.660;2024-03-22T02:15:26;5.43;;;1.90;;
69358;SDS011;56520;49.066;8.660;2024-03-22T02:17:52;6.60;;;2.15;;
69358;SDS011;56520;49.066;8.660;2024-03-22T02:20:17;5.93;;;1.60;;
69358;SDS011;56520;49.066;8.660;2024-03-22T02:22:43;4.68;;;1.65;;
69358;SDS011;56520;49.066;8.660;2024-03-22T02:25:08;5.43;;;2.03;;
69358;SDS011;56520;49.066;8.660;2024-03-22T02:27:34;6.63;;;2.28;;
69358;SDS011;56520;49.066;8.660;2024-03-22T02:29:59;5.32;;;2.00;;
69358;SDS011;56520;49.066;8.660;2024-03-22T02:32:25;6.00;;;2.60;;
69358;SDS011;56520;49.066;8.660;2024-03-22T02:34:50;7.55;;;2.22;;
69358;SDS011;56520;49.066;8.660;2024-03-22T02:37:16;8.23;;;2.22;;
69358;SDS011;56520;49.066;8.660;2024-03-22T02:39:41;7.63;;;2.50;;
69358;SDS011;56520;49.066;8.660;2024-03-22T02:42:07;7.85;;;2.63;;
69358;SDS011;56520;49.066;8.660;2024-03-22T02:44:33;9.85;;;2.30;;
69358;SDS011;56520;49.066;8.660;2024-03-22T02:46:58;7.00;;;2.47;;
69358;SDS011;56520;49.066;8.660;2024-03-22T02:49:24;6.95;;;2.60;;
69358;SDS011;56520;49.066;8.660;2024-03-22T02:51:50;7.00;;;2.83;;
69358;SDS011;56520;49.066;8.660;2024-03-22T02:54:15;7.80;;;2.38;;
69358;SDS011;56520;49.066;8.660;2024-03-22T02:56:41;6.30;;;2.10;;
69358;SDS011;56520;49.066;8.660;2024-03-22T02:59:06;5.00;;;1.80;;
69358;SDS011;56520;49.066;8.660;2024-03-22T03:01:32;8.18;;;2.35;;
69358;SDS011;56520;49.066;8.660;2024-03-22T03:03:57;7.07;;;2.25;;
69358;SDS011;56520;49.066;8.660;2024-03-22T03:06:22;7.63;;;2.33;;
69358;SDS011;56520;49.066;8.660;2024-03-22T03:08:48;5.32;;;2.15;;
69358;SDS011;56520;49.066;8.660;2024-03-22T03:11:14;7.13;;;2.47;;
69358;SDS011;56520;49.066;8.660;2024-03-22T03:13:39;5.80;;;2.00;;
69358;SDS011;56520;49.066;8.660;2024-03-22T03:16:05;6.72;;;2.13;;
69358;SDS011;56520;49.066;8.660;2024-03-22T03:18:30;4.95;;;1.90;;
69358;SDS011;56520;49.066;8.660;2024-03-22T03:20:55;6.30;;;1.63;;
69358;SDS011;56520;49.066;8.660;2024-03-22T03:23:21;5.40;;;1.95;;
69358;SDS011;56520;49.066;8.660;2024-03-22T03:25:46;5.20;;;1.70;;
69358;SDS011;56520;49.066;8.660;2024-03-22T03:28:12;4.72;;;1.70;;
69358;SDS011;56520;49.066;8.660;2024-03-22T03:30:38;4.93;;;1.77;;
69358;SDS011;56520;49.066;8.660;2024-03-22T03:33:03;4.55;;;1.75;;
69358;SDS011;56520;49.066;8.660;2024-03-22T03:35:29;7.03;;;2.25;;
69358;SDS011;56520;49.066;8.660;2024-03-22T03:37:55;5.75;;;2.20;;
69358;SDS011;56520;49.066;8.660;2024-03-22T03:40:21;6.03;;;2.20;;
69358;SDS011;56520;49.066;8.660;2024-03-22T03:42:49;5.20;;;1.92;;
69358;SDS011;56520;49.066;8.660;2024-03-22T03:45:15;5.93;;;2.03;;
69358;SDS011;56520;49.066;8.660;2024-03-22T03:47:40;5.22;;;1.83;;
69358;SDS011;56520;49.066;8.660;2024-03-22T03:50:05;5.55;;;2.25;;
69358;SDS011;56520;49.066;8.660;2024-03-22T03:52:31;7.88;;;2.60;;
69358;SDS011;56520;49.066;8.660;2024-03-22T03:54:56;6.68;;;2.40;;
69358;SDS011;56520;49.066;8.660;2024-03-22T03:57:22;6.57;;;2.35;;
69358;SDS011;56520;49.066;8.660;2024-03-22T03:59:47;6.05;;;1.95;;
69358;SDS011;56520;49.066;8.660;2024-03-22T04:02:12;5.05;;;2.00;;
69358;SDS011;56520;49.066;8.660;2024-03-22T04:04:38;6.07;;;2.20;;
69358;SDS011;56520;49.066;8.660;2024-03-22T04:07:04;7.53;;;2.28;;
69358;SDS011;56520;49.066;8.660;2024-03-22T04:09:29;6.43;;;2.00;;
69358;SDS011;56520;49.066;8.660;2024-03-22T04:11:55;6.55;;;2.58;;
69358;SDS011;56520;49.066;8.660;2024-03-22T04:14:23;4.57;;;1.73;;
69358;SDS011;56520;49.066;8.660;2024-03-22T04:16:49;7.13;;;2.33;;
69358;SDS011;56520;49.066;8.660;2024-03-22T04:19:15;5.00;;;1.80;;
69358;SDS011;56520;49.066;8.660;2024-03-22T04:21:40;6.20;;;2.08;;
69358;SDS011;56520;49.066;8.660;2024-03-22T04:24:05;3.97;;;1.42;;
69358;SDS011;56520;49.066;8.660;2024-03-22T04:26:31;5.20;;;2.03;;
69358;SDS011;56520;49.066;8.660;2024-03-22T04:28:56;5.30;;;1.60;;
69358;SDS011;56520;49.066;8.660;2024-03-22T04:31:22;5.53;;;2.22;;
69358;SDS011;56520;49.066;8.660;2024-03-22T04:33:47;5.68;;;1.80;;
69358;SDS011;56520;49.066;8.660;2024-03-22T04:36:13;5.10;;;1.58;;
69358;SDS011;56520;49.066;8.660;2024-03-22T04:38:38;3.80;;;1.55;;
69358;SDS011;56520;49.066;8.660;2024-03-22T04:41:03;5.55;;;1.83;;
69358;SDS011;56520;49.066;8.660;2024-03-22T04:43:29;5.57;;;1.67;;
69358;SDS011;56520;49.066;8.660;2024-03-22T04:45:54;6.03;;;1.88;;
69358;SDS011;56520;49.066;8.660;2024-03-22T04:48:20;5.50;;;1.98;;
69358;SDS011;56520;49.066;8.660;2024-03-22T04:50:47;6.50;;;2.50;;
69358;SDS011;56520;49.066;8.660;2024-03-22T04:53:15;6.82;;;2.30;;
69358;SDS011;56520;49.066;8.660;2024-03-22T04:55:43;6.78;;;2.30;;
69358;SDS011;56520;49.066;8.660;2024-03-22T04:58:16;6.28;;;2.55;;
69358;SDS011;56520;49.066;8.660;2024-03-22T05:00:48;6.47;;;2.17;;
69358;SDS011;56520;49.066;8.660;2024-03-22T05:03:14;8.38;;;2.15;;
69358;SDS011;56520;49.066;8.660;2024-03-22T05:05:41;5.40;;;1.95;;
69358;SDS011;56520;49.066;8.660;2024-03-22T05:08:07;5.60;;;2.13;;
69358;SDS011;56520;49.066;8.660;2024-03-22T05:10:33;8.43;;;3.33;;
69358;SDS011;56520;49.066;8.660;2024-03-22T05:12:59;6.68;;;2.50;;
69358;SDS011;56520;49.066;8.660;2024-03-22T05:15:25;5.72;;;1.83;;
69358;SDS011;56520;49.066;8.660;2024-03-22T05:17:51;6.93;;;2.63;;
69358;SDS011;56520;49.066;8.660;2024-03-22T05:20:17;6.63;;;2.67;;
69358;SDS011;56520;49.066;8.660;2024-03-22T05:22:42;8.35;;;3.30;;
69358;SDS011;56520;49.066;8.660;2024-03-22T05:25:08;5.40;;;2.13;;
69358;SDS011;56520;49.066;8.660;2024-03-22T05:27:34;7.97;;;2.67;;
69358;SDS011;56520;49.066;8.660;2024-03-22T05:30:00;5.50;;;2.10;;
69358;SDS011;56520;49.066;8.660;2024-03-22T05:32:26;7.43;;;2.42;;
69358;SDS011;56520;49.066;8.660;2024-03-22T05:34:52;7.47;;;2.88;;
69358;SDS011;56520;49.066;8.660;2024-03-22T05:37:17;6.35;;;2.55;;
69358;SDS011;56520;49.066;8.660;2024-03-22T05:39:43;9.75;;;3.08;;
69358;SDS011;56520;49.066;8.660;2024-03-22T05:42:08;6.40;;;2.30;;
69358;SDS011;56520;49.066;8.660;2024-03-22T05:44:34;7.47;;;2.58;;
69358;SDS011;56520;49.066;8.660;2024-03-22T05:46:59;6.88;;;3.20;;
69358;SDS011;56520;49.066;8.660;2024-03-22T05:49:25;7.50;;;3.55;;
69358;SDS011;56520;49.066;8.660;2024-03-22T05:51:50;9.00;;;2.95;;
69358;SDS011;56520;49.066;8.660;2024-03-22T05:54:16;7.38;;;2.88;;
69358;SDS011;56520;49.066;8.660;2024-03-22T05:56:41;7.40;;;2.67;;
69358;SDS011;56520;49.066;8.660;2024-03-22T05:59:07;7.18;;;2.75;;
69358;SDS011;56520;49.066;8.660;2024-03-22T06:01:32;8.15;;;2.78;;
69358;SDS011;56520;49.066;8.660;2024-03-22T06:03:58;11.70;;;3.88;;
69358;SDS011;56520;49.066;8.660;2024-03-22T06:06:23;8.13;;;2.90;;
69358;SDS011;56520;49.066;8.660;2024-03-22T06:08:51;7.75;;;3.47;;
69358;SDS011;56520;49.066;8.660;2024-03-22T06:11:22;7.85;;;2.88;;
69358;SDS011;56520;49.066;8.660;2024-03-22T06:13:47;8.15;;;2.88;;
69358;SDS011;56520;49.066;8.660;2024-03-22T06:16:12;5.97;;;2.13;;
69358;SDS011;56520;49.066;8.660;2024-03-22T06:18:38;8.63;;;2.90;;
69358;SDS011;56520;49.066;8.660;2024-03-22T06:21:04;5.90;;;2.00;;
69358;SDS011;56520;49.066;8.660;2024-03-22T06:23:30;6.82;;;2.95;;
69358;SDS011;56520;49.066;8.660;2024-03-22T06:25:55;5.75;;;2.10;;
69358;SDS011;56520;49.066;8.660;2024-03-22T06:28:21;7.53;;;2.63;;
69358;SDS011;56520;49.066;8.660;2024-03-22T06:30:48;6.13;;;2.42;;
69358;SDS011;56520;49.066;8.660;2024-03-22T06:33:14;6.60;;;2.58;;
69358;SDS011;56520;49.066;8.660;2024-03-22T06:35:40;7.88;;;2.50;;
69358;SDS011;56520;49.066;8.660;2024-03-22T06:38:06;9.15;;;2.42;;
69358;SDS011;56520;49.066;8.660;2024-03-22T06:40:31;7.32;;;2.60;;
69358;SDS011;56520;49.066;8.660;2024-03-22T06:42:57;6.57;;;2.80;;
69358;SDS011;56520;49.066;8.660;2024-03-22T06:45:22;9.90;;;3.22;;
69358;SDS011;56520;49.066;8.660;2024-03-22T06:47:47;7.60;;;2.78;;
69358;SDS011;56520;49.066;8.660;2024-03-22T06:50:13;6.65;;;2.20;;
69358;SDS011;56520;49.066;8.660;2024-03-22T06:52:38;8.35;;;2.88;;
69358;SDS011;56520;49.066;8.660;2024-03-22T06:55:04;7.95;;;2.92;;
69358;SDS011;56520;49.066;8.660;2024-03-22T06:57:30;6.50;;;2.53;;
69358;SDS011;56520;49.066;8.660;2024-03-22T06:59:55;6.70;;;2.38;;
69358;SDS011;56520;49.066;8.660;2024-03-22T07:02:21;8.00;;;2.85;;
69358;SDS011;56520;49.066;8.660;2024-03-22T07:04:46;7.43;;;2.60;;
69358;SDS011;56520;49.066;8.660;2024-03-22T07:07:12;8.18;;;3.13;;
69358;SDS011;56520;49.066;8.660;2024-03-22T07:09:37;8.98;;;2.88;;
69358;SDS011;56520;49.066;8.660;2024-03-22T07:12:02;7.15;;;2.38;;
69358;SDS011;56520;49.066;8.660;2024-03-22T07:14:28;9.70;;;3.45;;
69358;SDS011;56520;49.066;8.660;2024-03-22T07:16:54;7.80;;;2.10;;
69358;SDS011;56520;49.066;8.660;2024-03-22T07:19:19;7.97;;;2.38;;
69358;SDS011;56520;49.066;8.660;2024-03-22T07:21:46;9.18;;;2.83;;
69358;SDS011;56520;49.066;8.660;2024-03-22T07:24:12;6.28;;;2.33;;
69358;SDS011;56520;49.066;8.660;2024-03-22T07:26:37;7.78;;;2.65;;
69358;SDS011;56520;49.066;8.660;2024-03-22T07:29:03;7.07;;;2.60;;
69358;SDS011;56520;49.066;8.660;2024-03-22T07:31:28;9.02;;;2.38;;
69358;SDS011;56520;49.066;8.660;2024-03-22T07:33:53;6.28;;;2.55;;
69358;SDS011;56520;49.066;8.660;2024-03-22T07:36:19;7.38;;;2.60;;
69358;SDS011;56520;49.066;8.660;2024-03-22T07:38:45;8.60;;;2.83;;
69358;SDS011;56520;49.066;8.660;2024-03-22T07:41:10;6.90;;;2.60;;
69358;SDS011;56520;49.066;8.660;2024-03-22T07:43:36;8.77;;;2.72;;
69358;SDS011;56520;49.066;8.660;2024-03-22T07:46:01;5.43;;;2.15;;
69358;SDS011;56520;49.066;8.660;2024-03-22T07:48:27;7.43;;;2.80;;
69358;SDS011;56520;49.066;8.660;2024-03-22T07:50:55;7.32;;;2.42;;
69358;SDS011;56520;49.066;8.660;2024-03-22T07:53:22;7.00;;;2.58;;
69358;SDS011;56520;49.066;8.660;2024-03-22T07:55:47;6.72;;;2.65;;
69358;SDS011;56520;49.066;8.660;2024-03-22T07:58:13;7.30;;;2.63;;
69358;SDS011;56520;49.066;8.660;2024-03-22T08:00:38;6.70;;;2.63;;
69358;SDS011;56520;49.066;8.660;2024-03-22T08:03:04;9.32;;;3.10;;
69358;SDS011;56520;49.066;8.660;2024-03-22T08:05:29;6.93;;;2.50;;
69358;SDS011;56520;49.066;8.660;2024-03-22T08:07:55;7.70;;;2.53;;
69358;SDS011;56520;49.066;8.660;2024-03-22T08:10:20;9.07;;;2.92;;
69358;SDS011;56520;49.066;8.660;2024-03-22T08:12:46;6.88;;;2.40;;
69358;SDS011;56520;49.066;8.660;2024-03-22T08:15:11;7.18;;;2.63;;
69358;SDS011;56520;49.066;8.660;2024-03-22T08:17:36;8.30;;;2.65;;
69358;SDS011;56520;49.066;8.660;2024-03-22T08:20:02;7.72;;;2.60;;
69358;SDS011;56520;49.066;8.660;2024-03-22T08:22:28;7.32;;;2.50;;
69358;SDS011;56520;49.066;8.660;2024-03-22T08:24:53;7.78;;;2.67;;
69358;SDS011;56520;49.066;8.660;2024-03-22T08:27:21;7.00;;;2.75;;
69358;SDS011;56520;49.066;8.660;2024-03-22T08:29:46;8.35;;;2.60;;
69358;SDS011;56520;49.066;8.660;2024-03-22T08:32:12;8.70;;;3.28;;
69358;SDS011;56520;49.066;8.660;2024-03-22T08:34:38;7.57;;;2.55;;
69358;SDS011;56520;49.066;8.660;2024-03-22T08:37:03;6.47;;;2.53;;
69358;SDS011;56520;49.066;8.660;2024-03-22T08:39:29;6.20;;;2.35;;
69358;SDS011;56520;49.066;8.660;2024-03-22T08:41:55;9.20;;;2.65;;
69358;SDS011;56520;49.066;8.660;2024-03-22T08:44:20;7.97;;;2.65;;
69358;SDS011;56520;49.066;8.660;2024-03-22T08:46:46;8.27;;;2.40;;
69358;SDS011;56520;49.066;8.660;2024-03-22T08:49:12;7.43;;;3.05;;
69358;SDS011;56520;49.066;8.660;2024-03-22T08:51:38;7.38;;;2.33;;
69358;SDS011;56520;49.066;8.660;2024-03-22T08:54:04;6.68;;;2.53;;
69358;SDS011;56520;49.066;8.660;2024-03-22T08:56:30;7.35;;;3.08;;
69358;SDS011;56520;49.066;8.660;2024-03-22T08:58:55;6.88;;;2.85;;
69358;SDS011;56520;49.066;8.660;2024-03-22T09:01:21;7.55;;;2.85;;
69358;SDS011;56520;49.066;8.660;2024-03-22T09:03:47;7.32;;;2.53;;
69358;SDS011;56520;49.066;8.660;2024-03-22T09:06:16;8.95;;;3.10;;
69358;SDS011;56520;49.066;8.660;2024-03-22T10:09:30;7.30;;;2.40;;
69358;SDS011;56520;49.066;8.660;2024-03-22T10:11:56;6.60;;;2.53;;
69358;SDS011;56520;49.066;8.660;2024-03-22T10:14:22;6.50;;;2.40;;
69358;SDS011;56520;49.066;8.660;2024-03-22T10:16:51;7.45;;;2.58;;
69358;SDS011;56520;49.066;8.660;2024-03-22T10:19:20;7.93;;;2.63;;
69358;SDS011;56520;49.066;8.660;2024-03-22T10:21:46;9.35;;;3.03;;
69358;SDS011;56520;49.066;8.660;2024-03-22T10:24:12;7.00;;;2.58;;
69358;SDS011;56520;49.066;8.660;2024-03-22T10:26:39;6.28;;;2.53;;
69358;SDS011;56520;49.066;8.660;2024-03-22T10:29:07;9.15;;;3.15;;
69358;SDS011;56520;49.066;8.660;2024-03-22T10:31:34;7.38;;;2.92;;
69358;SDS011;56520;49.066;8.660;2024-03-22T10:34:01;8.35;;;2.83;;
69358;SDS011;56520;49.066;8.660;2024-03-22T10:36:28;7.68;;;2.78;;
69358;SDS011;56520;49.066;8.660;2024-03-22T10:38:56;6.70;;;2.70;;
69358;SDS011;56520;49.066;8.660;2024-03-22T10:41:23;6.40;;;2.33;;
69358;SDS011;56520;49.066;8.660;2024-03-22T10:43:49;6.40;;;2.53;;
69358;SDS011;56520;49.066;8.660;2024-03-22T10:46:14;7.10;;;2.78;;
69358;SDS011;56520;49.066;8.660;2024-03-22T10:48:44;7.88;;;2.67;;
69358;SDS011;56520;49.066;8.660;2024-03-22T10:51:10;7.95;;;2.83;;
69358;SDS011;56520;49.066;8.660;2024-03-22T10:53:37;6.32;;;2.63;;
69358;SDS011;56520;49.066;8.660;2024-03-22T10:56:03;7.13;;;2.67;;
69358;SDS011;56520;49.066;8.660;2024-03-22T10:58:31;6.70;;;2.67;;
69358;SDS011;56520;49.066;8.660;2024-03-22T11:00:57;7.53;;;2.75;;
69358;SDS011;56520;49.066;8.660;2024-03-22T11:03:23;10.85;;;2.70;;
69358;SDS011;56520;49.066;8.660;2024-03-22T11:05:54;10.48;;;2.40;;
69358;SDS011;56520;49.066;8.660;2024-03-22T11:08:24;7.65;;;2.45;;
69358;SDS011;56520;49.066;8.660;2024-03-22T11:10:53;5.90;;;2.10;;
69358;SDS011;56520;49.066;8.660;2024-03-22T11:13:20;7.10;;;2.30;;
69358;SDS011;56520;49.066;8.660;2024-03-22T11:15:49;6.55;;;2.50;;
69358;SDS011;56520;49.066;8.660;2024-03-22T11:18:15;7.78;;;2.28;;
69358;SDS011;56520;49.066;8.660;2024-03-22T11:20:41;7.15;;;2.40;;
69358;SDS011;56520;49.066;8.660;2024-03-22T11:23:07;6.07;;;2.20;;
69358;SDS011;56520;49.066;8.660;2024-03-22T11:25:34;7.43;;;1.90;;
69358;SDS011;56520;49.066;8.660;2024-03-22T11:28:00;8.57;;;2.20;;
69358;SDS011;56520;49.066;8.660;2024-03-22T11:30:30;7.10;;;2.10;;
69358;SDS011;56520;49.066;8.660;2024-03-22T11:32:56;7.45;;;2.25;;
69358;SDS011;56520;49.066;8.660;2024-03-22T11:35:22;5.40;;;2.00;;
69358;SDS011;56520;49.066;8.660;2024-03-22T11:37:49;5.80;;;2.10;;
69358;SDS011;56520;49.066;8.660;2024-03-22T11:40:15;7.15;;;1.90;;
69358;SDS011;56520;49.066;8.660;2024-03-22T11:42:42;5.47;;;1.67;;
69358;SDS011;56520;49.066;8.660;2024-03-22T11:45:13;4.90;;;1.50;;
69358;SDS011;56520;49.066;8.660;2024-03-22T11:47:41;4.50;;;1.60;;
69358;SDS011;56520;49.066;8.660;2024-03-22T11:50:07;4.18;;;1.40;;
69358;SDS011;56520;49.066;8.660;2024-03-22T11:52:34;5.45;;;1.40;;
69358;SDS011;56520;49.066;8.660;2024-03-22T11:55:00;5.57;;;1.80;;
69358;SDS011;56520;49.066;8.660;2024-03-22T11:57:26;4.78;;;1.60;;
69358;SDS011;56520;49.066;8.660;2024-03-22T11:59:51;6.13;;;1.95;;
69358;SDS011;56520;49.066;8.660;2024-03-22T12:02:17;4.43;;;1.50;;
69358;SDS011;56520;49.066;8.660;2024-03-22T12:04:46;4.90;;;1.70;;
69358;SDS011;56520;49.066;8.660;2024-03-22T12:07:16;5.22;;;1.40;;
69358;SDS011;56520;49.066;8.660;2024-03-22T12:09:43;4.70;;;1.50;;
69358;SDS011;56520;49.066;8.660;2024-03-22T12:12:09;6.10;;;1.73;;
69358;SDS011;56520;49.066;8.660;2024-03-22T12:14:36;5.97;;;1.75;;
69358;SDS011;56520;49.066;8.660;2024-03-22T12:17:03;5.80;;;1.85;;
69358;SDS011;56520;49.066;8.660;2024-03-22T12:19:29;5.13;;;1.52;;
69358;SDS011;56520;49.066;8.660;2024-03-22T12:21:54;4.13;;;1.48;;
69358;SDS011;56520;49.066;8.660;2024-03-22T12:24:20;4.53;;;1.50;;
69358;SDS011;56520;49.066;8.660;2024-03-22T12:26:46;6.15;;;1.55;;
69358;SDS011;56520;49.066;8.660;2024-03-22T12:29:13;4.28;;;1.38;;
69358;SDS011;56520;49.066;8.660;2024-03-22T12:31:40;5.45;;;1.77;;
69358;SDS011;56520;49.066;8.660;2024-03-22T12:34:06;7.97;;;1.95;;
69358;SDS011;56520;49.066;8.660;2024-03-22T12:36:31;6.18;;;1.73;;
69358;SDS011;56520;49.066;8.660;2024-03-22T12:38:57;4.40;;;1.45;;
69358;SDS011;56520;49.066;8.660;2024-03-22T12:41:22;5.65;;;1.98;;
69358;SDS011;56520;49.066;8.660;2024-03-22T12:43:48;4.82;;;1.60;;
69358;SDS011;56520;49.066;8.660;2024-03-22T12:46:13;4.43;;;1.63;;
69358;SDS011;56520;49.066;8.660;2024-03-22T12:48:38;5.47;;;1.83;;
69358;SDS011;56520;49.066;8.660;2024-03-22T12:51:04;5.00;;;1.70;;
69358;SDS011;56520;49.066;8.660;2024-03-22T12:53:30;7.90;;;1.98;;
69358;SDS011;56520;49.066;8.660;2024-03-22T12:55:55;5.00;;;1.83;;
69358;SDS011;56520;49.066;8.660;2024-03-22T12:58:20;5.03;;;1.73;;
69358;SDS011;56520;49.066;8.660;2024-03-22T13:00:46;4.78;;;1.77;;
69358;SDS011;56520;49.066;8.660;2024-03-22T13:03:11;4.60;;;1.83;;
69358;SDS011;56520;49.066;8.660;2024-03-22T13:05:40;5.50;;;1.60;;
69358;SDS011;56520;49.066;8.660;2024-03-22T13:08:05;6.07;;;1.60;;
69358;SDS011;56520;49.066;8.660;2024-03-22T13:10:31;7.20;;;1.83;;
69358;SDS011;56520;49.066;8.660;2024-03-22T13:12:56;5.93;;;1.83;;
69358;SDS011;56520;49.066;8.660;2024-03-22T13:15:22;4.82;;;1.77;;
69358;SDS011;56520;49.066;8.660;2024-03-22T13:17:48;5.38;;;1.70;;
69358;SDS011;56520;49.066;8.660;2024-03-22T13:20:13;4.85;;;1.60;;
69358;SDS011;56520;49.066;8.660;2024-03-22T13:22:40;4.18;;;1.50;;
69358;SDS011;56520;49.066;8.660;2024-03-22T13:25:06;5.10;;;1.55;;
69358;SDS011;56520;49.066;8.660;2024-03-22T13:27:35;4.82;;;1.38;;
69358;SDS011;56520;49.066;8.660;2024-03-22T13:30:01;5.65;;;1.60;;
69358;SDS011;56520;49.066;8.660;2024-03-22T13:32:27;4.32;;;1.42;;
69358;SDS011;56520;49.066;8.660;2024-03-22T13:34:53;5.88;;;1.90;;
69358;SDS011;56520;49.066;8.660;2024-03-22T13:37:18;5.10;;;1.63;;
69358;SDS011;56520;49.066;8.660;2024-03-22T13:39:47;5.82;;;1.80;;
69358;SDS011;56520;49.066;8.660;2024-03-22T13:42:14;3.80;;;1.20;;
69358;SDS011;56520;49.066;8.660;2024-03-22T13:44:39;3.55;;;1.13;;
69358;SDS011;56520;49.066;8.660;2024-03-22T13:47:05;4.15;;;1.50;;
69358;SDS011;56520;49.066;8.660;2024-03-22T13:49:30;4.28;;;1.23;;
69358;SDS011;56520;49.066;8.660;2024-03-22T13:51:57;6.03;;;1.65;;
69358;SDS011;56520;49.066;8.660;2024-03-22T13:54:24;4.32;;;1.33;;
69358;SDS011;56520;49.066;8.660;2024-03-22T13:56:49;4.28;;;1.35;;
69358;SDS011;56520;49.066;8.660;2024-03-22T13:59:15;4.13;;;1.20;;
69358;SDS011;56520;49.066;8.660;2024-03-22T14:01:41;3.85;;;1.30;;
69358;SDS011;56520;49.066;8.660;2024-03-22T14:04:10;4.07;;;1.30;;
69358;SDS011;56520;49.066;8.660;2024-03-22T14:06:36;3.35;;;1.08;;
69358;SDS011;56520;49.066;8.660;2024-03-22T14:09:02;3.80;;;1.10;;
69358;SDS011;56520;49.066;8.660;2024-03-22T14:11:29;5.55;;;1.23;;
69358;SDS011;56520;49.066;8.660;2024-03-22T14:13:58;4.18;;;1.40;;
69358;SDS011;56520;49.066;8.660;2024-03-22T14:16:23;3.60;;;1.15;;
69358;SDS011;56520;49.066;8.660;2024-03-22T14:18:49;5.20;;;1.48;;
69358;SDS011;56520;49.066;8.660;2024-03-22T14:21:15;4.57;;;1.60;;
69358;SDS011;56520;49.066;8.660;2024-03-22T14:23:50;5.18;;;1.60;;
69358;SDS011;56520;49.066;8.660;2024-03-22T14:26:16;4.10;;;1.23;;
69358;SDS011;56520;49.066;8.660;2024-03-22T14:28:42;5.45;;;1.58;;
69358;SDS011;56520;49.066;8.660;2024-03-22T14:31:11;6.75;;;1.55;;
69358;SDS011;56520;49.066;8.660;2024-03-22T14:33:37;4.38;;;1.38;;
69358;SDS011;56520;49.066;8.660;2024-03-22T14:36:04;4.25;;;1.52;;
69358;SDS011;56520;49.066;8.660;2024-03-22T14:38:31;3.97;;;1.40;;
69358;SDS011;56520;49.066;8.660;2024-03-22T14:40:56;4.18;;;1.40;;
69358;SDS011;56520;49.066;8.660;2024-03-22T14:43:23;6.65;;;1.60;;
69358;SDS011;56520;49.066;8.660;2024-03-22T14:45:49;5.30;;;1.27;;
69358;SDS011;56520;49.066;8.660;2024-03-22T14:48:21;5.15;;;1.63;;
69358;SDS011;56520;49.066;8.660;2024-03-22T14:50:48;5.05;;;1.50;;
69358;SDS011;56520;49.066;8.660;2024-03-22T14:53:14;4.65;;;1.40;;
69358;SDS011;56520;49.066;8.660;2024-03-22T14:55:41;4.28;;;1.40;;
69358;SDS011;56520;49.066;8.660;2024-03-22T14:58:29;4.68;;;1.45;;
69358;SDS011;56520;49.066;8.660;2024-03-22T15:01:04;4.70;;;1.60;;
69358;SDS011;56520;49.066;8.660;2024-03-22T15:05:56;4.53;;;1.52;;
69358;SDS011;56520;49.066;8.660;2024-03-22T15:08:24;3.92;;;1.42;;
69358;SDS011;56520;49.066;8.660;2024-03-22T15:10:51;5.53;;;1.50;;
69358;SDS011;56520;49.066;8.660;2024-03-22T15:13:17;4.30;;;1.30;;
69358;SDS011;56520;49.066;8.660;2024-03-22T15:15:43;6.75;;;1.52;;
69358;SDS011;56520;49.066;8.660;2024-03-22T15:18:16;4.70;;;1.30;;
69358;SDS011;56520;49.066;8.660;2024-03-22T15:20:41;5.32;;;1.55;;
69358;SDS011;56520;49.066;8.660;2024-03-22T15:23:07;4.78;;;1.38;;
69358;SDS011;56520;49.066;8.660;2024-03-22T15:25:32;4.80;;;1.60;;
69358;SDS011;56520;49.066;8.660;2024-03-22T15:27:58;4.40;;;1.60;;
69358;SDS011;56520;49.066;8.660;2024-03-22T15:30:23;4.53;;;1.42;;
69358;SDS011;56520;49.066;8.660;2024-03-22T15:32:48;4.68;;;1.70;;
69358;SDS011;56520;49.066;8.660;2024-03-22T15:35:14;5.53;;;1.63;;
69358;SDS011;56520;49.066;8.660;2024-03-22T15:37:39;5.43;;;1.70;;
69358;SDS011;56520;49.066;8.660;2024-03-22T15:40:06;4.18;;;1.50;;
69358;SDS011;56520;49.066;8.660;2024-03-22T15:42:33;4.95;;;1.60;;
69358;SDS011;56520;49.066;8.660;2024-03-22T15:44:58;5.40;;;1.70;;